DAAJ

Details ICAO DAAJ (DJG)
Name TISKA
Region Algeria
Timezone Africa/Algiers (UTC+1.0)
Plans Departing 19
Arriving 17
Stats Elevation 3,176 ft / 968 m (AMSL)
Location 24.284519° 9.456366°
Runways 2
Magnetic Variation 1.409° E
Sunrise 2017-12-11 05:57:01 UTC / 2017-12-11 06:57:01 Local
Sunset 2017-12-11 16:36:44 UTC / 2017-12-11 17:36:44 Local
Advertisement - Login to hide

Runways

ID Width Length Bearing (true) Bearing (mag) Surface Threshold Offset Overrun Length
02 148 ft / 45 m 7,927 ft / 2,416 m 21.16° 19.75° Asphalt 0 ft / 0 m 0 ft / 0 m
13 148 ft / 45 m 10,184 ft / 3,104 m 125.26° 123.85° Asphalt 0 ft / 0 m 255 ft / 78 m
20 148 ft / 45 m 7,927 ft / 2,416 m 201.16° 199.75° Asphalt 0 ft / 0 m 0 ft / 0 m
31 148 ft / 45 m 10,184 ft / 3,104 m 305.27° 303.86° Asphalt 0 ft / 0 m 0 ft / 0 m

Map

Weather


0- 5 10 15 20 25 30 35+ Temperature / ° C

Clouds and Precipitation
Forecast for 2017-12-11 06:00 UTC. Updated an hour ago

Ground ~20,000 ft ~40,000 ft Winds

METAR

DAAJ 110200Z 23003KT CAVOK 04/M06 Q1021

TAF

TAF DAAJ 102300Z 1100/1124 04005KT CAVOK

Frequencies

Tower 118.10 MHz DJANET TWR
Tower 119.70 MHz DJANET TWR
Warning: Do not use this data for real-world aviation or navigation. No guarantee of current accuracy is given.